Portada
METAR-TAF:

METAR-TAF

Aeropuertos :

Castres, Francia

latitud: 43-33-25N, longitud: 2-17-21E, altitud: 239 m

Observación

El informe se hizo hace 39 minutos, a las 12:00 UTC
Viento 14 kt del noroeste
Temperatura 17°C
Humedad 63%
Presión 1015 hPa
Visibilidad 10 km o más
Cielo nuboso a una altura de 3000 ft
Cielo nuboso a una altura de 3900 ft

METAR: LFCK 261200Z AUTO 32014KT 9999 BKN030 BKN039 17/10 Q1015 NOSIG

Hora: 14:39 (12:39 UTC)

Pronóstico

El informe se hizo hace 1 hora y 39 minutos, a las 11:00 UTC
Pronóstico válido del 26 a las 12 UTC al 26 a las 21 UTC
Viento 12 kt del oeste-noroeste
Visibilidad 10 km o más
Cielo nuboso a una altura de 2500 ft
Evolucionando progresivamente
del 26 a las 13 UTC al 26 a las 15 UTC
Visibilidad 10 km o más
sin nubes por debajo de 1500 m y sin presencia de cumulonimbus.

TAF: LFCK 261100Z 2612/2621 29012KT 9999 BKN025 BECMG 2613/2615 CAVOK

Observaciones y pronósticos meteorológicos de más de 4000 aeropuertos (mensajes METAR y TAF).

Los puntos amarillos y rojos representan las estaciones disponibles.

Ponga el ratón en el punto deseado para ver el nombre de la estación.

Haga clic para ver las observaciones y los pronósticos meteorológicos.

Para cambiar el mapa : haga clic en los botones verdes con una cruz de color negro para hacer un zoom, en el botón verde con un guión para alejar o en las flechas verdes para mapas adyacentes.


METAR-TAF: